Time;durP1;ratioP1;P1;durP2;ratioP2;P2;SDS_P1;SDS_P2;PMS_P1;PMS_P2;Temp;Humidity;BMP_temperature;BMP_pressure;BME280_temperature;BME280_humidity;BME280_pressure;Samples;Min_cycle;Max_cycle;Signal;HPM_P1;HPM_P2
2022/09/08 00:00:20;;;;;;;15.80;12.07;;;;;;;;;;5006637;28;20019;-71
2022/09/08 00:02:46;;;;;;;13.82;11.30;;;;;;;;;;5000119;28;20014;-73
2022/09/08 00:05:14;;;;;;;13.35;11.80;;;;;;;;;;4999606;28;20019;-72
2022/09/08 00:07:42;;;;;;;13.63;11.95;;;;;;;;;;4999912;28;20039;-72
2022/09/08 00:10:11;;;;;;;15.65;12.27;;;;;;;;;;5005775;23;20061;-72
2022/09/08 00:12:41;;;;;;;19.52;13.40;;;;;;;;;;4999945;28;20049;-72
2022/09/08 00:15:08;;;;;;;14.65;11.77;;;;;;;;;;4999086;28;20011;-72
2022/09/08 00:17:34;;;;;;;16.83;13.45;;;;;;;;;;4999919;28;20019;-72
2022/09/08 00:20:02;;;;;;;18.05;13.63;;;;;;;;;;4999635;28;20011;-72
2022/09/08 00:22:28;;;;;;;16.05;12.82;;;;;;;;;;4999906;28;20079;-72
2022/09/08 00:24:54;;;;;;;17.52;12.77;;;;;;;;;;4999552;28;20015;-72
2022/09/08 00:27:20;;;;;;;14.60;13.07;;;;;;;;;;4999519;28;20050;-72
2022/09/08 00:29:46;;;;;;;19.60;15.63;;;;;;;;;;4998972;28;20007;-72
2022/09/08 00:32:13;;;;;;;17.33;15.50;;;;;;;;;;4998335;28;20043;-72
2022/09/08 00:34:39;;;;;;;20.80;16.40;;;;;;;;;;4998998;28;20018;-72
2022/09/08 00:37:05;;;;;;;18.80;16.05;;;;;;;;;;4999451;28;20042;-72
2022/09/08 00:39:31;;;;;;;20.65;17.38;;;;;;;;;;4999589;28;20015;-72
2022/09/08 00:41:57;;;;;;;21.00;17.27;;;;;;;;;;4999756;28;20015;-72
2022/09/08 00:44:35;;;;;;;21.58;16.80;;;;;;;;;;4998152;28;20065;-72
2022/09/08 00:47:02;;;;;;;21.92;17.75;;;;;;;;;;4999484;28;20015;-72
2022/09/08 00:49:31;;;;;;;20.17;17.50;;;;;;;;;;4998978;28;20030;-72
2022/09/08 00:51:58;;;;;;;20.48;17.73;;;;;;;;;;4999351;28;20019;-72
2022/09/08 00:54:25;;;;;;;21.35;18.45;;;;;;;;;;4996345;28;20022;-72
2022/09/08 00:56:56;;;;;;;19.30;17.23;;;;;;;;;;4997560;28;20054;-72
2022/09/08 00:59:24;;;;;;;20.98;18.48;;;;;;;;;;5003750;28;20035;-72
2022/09/08 01:01:51;;;;;;;20.77;17.52;;;;;;;;;;5004998;28;20118;-72
2022/09/08 01:04:18;;;;;;;23.83;18.73;;;;;;;;;;5001010;28;20019;-72
2022/09/08 01:12:45;;;;;;;20.17;17.85;;;;;;;;;;5022290;28;20038;-72
2022/09/08 01:15:21;;;;;;;23.50;19.52;;;;;;;;;;5021995;28;20006;-72
2022/09/08 01:17:49;;;;;;;20.80;18.65;;;;;;;;;;5003871;28;20030;-72
2022/09/08 01:20:16;;;;;;;23.15;19.85;;;;;;;;;;5001451;28;20042;-72
2022/09/08 01:22:42;;;;;;;21.98;19.65;;;;;;;;;;4985296;28;20031;-72
2022/09/08 01:25:17;;;;;;;20.52;18.30;;;;;;;;;;5008133;28;20013;-72
2022/09/08 01:27:45;;;;;;;19.80;17.85;;;;;;;;;;5024365;28;20013;-72
2022/09/08 01:30:14;;;;;;;18.58;16.63;;;;;;;;;;5024188;28;20018;-72
2022/09/08 01:32:42;;;;;;;18.63;16.48;;;;;;;;;;5041360;28;20098;-73
2022/09/08 01:35:08;;;;;;;19.45;17.30;;;;;;;;;;5041586;28;20025;-72
2022/09/08 01:37:35;;;;;;;19.50;17.05;;;;;;;;;;5030549;28;20011;-72
2022/09/08 01:40:01;;;;;;;18.75;16.65;;;;;;;;;;5004630;28;20034;-72
2022/09/08 01:42:27;;;;;;;19.65;16.77;;;;;;;;;;5004922;28;20014;-72
2022/09/08 01:44:53;;;;;;;18.33;15.65;;;;;;;;;;5014266;28;20042;-73
2022/09/08 01:47:19;;;;;;;17.85;15.93;;;;;;;;;;5021275;28;20021;-73
2022/09/08 01:49:45;;;;;;;19.25;17.08;;;;;;;;;;5020924;28;20035;-72
2022/09/08 01:52:11;;;;;;;18.67;16.88;;;;;;;;;;5020517;28;20037;-72
2022/09/08 01:54:37;;;;;;;18.38;16.52;;;;;;;;;;5004388;28;20018;-73
2022/09/08 01:57:04;;;;;;;20.13;17.83;;;;;;;;;;5021480;28;20097;-72
2022/09/08 01:59:30;;;;;;;20.02;17.92;;;;;;;;;;5003818;28;20054;-73
2022/09/08 02:01:56;;;;;;;19.23;17.27;;;;;;;;;;4987055;28;20053;-72
2022/09/08 02:04:22;;;;;;;19.60;17.30;;;;;;;;;;4998816;28;20107;-72
2022/09/08 02:06:48;;;;;;;21.23;18.98;;;;;;;;;;5001449;28;20014;-72
2022/09/08 02:09:14;;;;;;;19.70;17.73;;;;;;;;;;5014233;28;20023;-72
2022/09/08 02:11:40;;;;;;;23.42;18.75;;;;;;;;;;5021090;28;20045;-72
2022/09/08 02:14:06;;;;;;;19.40;17.10;;;;;;;;;;5021568;28;20050;-71
2022/09/08 02:16:33;;;;;;;22.33;18.30;;;;;;;;;;5021375;28;20018;-75
2022/09/08 02:18:59;;;;;;;19.23;16.15;;;;;;;;;;5021461;28;20006;-71
2022/09/08 02:21:26;;;;;;;19.27;16.98;;;;;;;;;;5027120;23;20106;-72
2022/09/08 02:23:53;;;;;;;18.25;16.15;;;;;;;;;;5004624;28;20011;-72
2022/09/08 02:26:22;;;;;;;19.00;16.67;;;;;;;;;;5021352;28;20021;-72
2022/09/08 02:28:51;;;;;;;17.90;16.00;;;;;;;;;;5021209;28;20041;-72
2022/09/08 02:31:17;;;;;;;19.27;17.10;;;;;;;;;;5019886;28;20031;-73
2022/09/08 02:33:43;;;;;;;19.83;17.40;;;;;;;;;;5021309;28;20070;-73
2022/09/08 02:36:10;;;;;;;18.77;16.63;;;;;;;;;;5020687;28;20060;-72
2022/09/08 02:38:36;;;;;;;19.23;16.33;;;;;;;;;;5018864;28;20015;-72
2022/09/08 02:41:02;;;;;;;23.35;16.58;;;;;;;;;;4985846;28;20026;-72
2022/09/08 02:43:29;;;;;;;20.58;16.63;;;;;;;;;;5003207;28;20018;-73
2022/09/08 02:45:56;;;;;;;18.08;15.77;;;;;;;;;;4997859;28;20011;-72
2022/09/08 02:48:23;;;;;;;18.15;15.57;;;;;;;;;;4997975;28;20007;-72
2022/09/08 02:50:51;;;;;;;20.23;15.70;;;;;;;;;;4999523;28;20022;-72
2022/09/08 02:53:17;;;;;;;18.92;15.93;;;;;;;;;;4983217;28;20019;-73
2022/09/08 02:55:43;;;;;;;18.85;15.50;;;;;;;;;;5014991;28;20049;-72
2022/09/08 02:58:12;;;;;;;20.17;16.05;;;;;;;;;;5020658;28;20038;-72
2022/09/08 03:00:39;;;;;;;21.25;16.05;;;;;;;;;;5019305;28;20036;-73
2022/09/08 03:03:06;;;;;;;17.55;14.35;;;;;;;;;;5008202;28;20021;-72
2022/09/08 03:05:37;;;;;;;18.48;15.35;;;;;;;;;;4984328;28;20015;-72
2022/09/08 03:08:04;;;;;;;17.95;16.05;;;;;;;;;;5010369;28;20014;-72
2022/09/08 03:10:31;;;;;;;19.40;14.98;;;;;;;;;;5020547;28;20022;-73
2022/09/08 03:13:09;;;;;;;17.40;15.18;;;;;;;;;;5016448;28;20037;-72
2022/09/08 03:15:39;;;;;;;21.27;15.68;;;;;;;;;;5018942;28;20026;-73
2022/09/08 03:18:29;;;;;;;19.83;16.08;;;;;;;;;;4985836;28;20038;-73
2022/09/08 03:21:05;;;;;;;17.20;14.88;;;;;;;;;;4961198;28;20058;-73
2022/09/08 03:23:33;;;;;;;18.80;14.43;;;;;;;;;;4985735;28;20034;-73
2022/09/08 03:26:06;;;;;;;20.27;13.88;;;;;;;;;;4998646;28;20007;-73
2022/09/08 03:28:33;;;;;;;15.63;14.02;;;;;;;;;;4998977;28;20086;-72
2022/09/08 03:30:59;;;;;;;18.83;14.85;;;;;;;;;;4993088;28;20024;-73
2022/09/08 03:33:25;;;;;;;16.98;15.18;;;;;;;;;;5083382;23;20039;-72
2022/09/08 03:35:51;;;;;;;20.90;15.48;;;;;;;;;;4996086;28;20039;-72
2022/09/08 03:38:18;;;;;;;17.45;14.75;;;;;;;;;;4999872;28;20034;-72
2022/09/08 03:40:44;;;;;;;18.85;15.68;;;;;;;;;;4982111;28;20023;-72
2022/09/08 03:43:11;;;;;;;17.23;15.05;;;;;;;;;;4982788;28;20038;-73
2022/09/08 03:45:41;;;;;;;20.30;15.52;;;;;;;;;;4993000;28;20022;-72
2022/09/08 03:48:07;;;;;;;18.50;15.48;;;;;;;;;;5036374;23;20035;-72
2022/09/08 03:50:33;;;;;;;17.75;15.52;;;;;;;;;;5015172;28;20026;-73
2022/09/08 03:52:59;;;;;;;21.80;15.10;;;;;;;;;;5017836;28;20026;-73
2022/09/08 03:55:25;;;;;;;18.50;15.23;;;;;;;;;;4995616;28;20035;-72
2022/09/08 03:57:52;;;;;;;19.42;16.92;;;;;;;;;;4996776;28;20034;-72
2022/09/08 04:00:18;;;;;;;20.55;17.50;;;;;;;;;;4995749;28;20017;-72
2022/09/08 04:02:44;;;;;;;18.52;14.15;;;;;;;;;;4999237;28;20007;-72
2022/09/08 04:05:10;;;;;;;22.95;14.63;;;;;;;;;;4998958;28;20022;-73
2022/09/08 04:07:38;;;;;;;15.43;12.82;;;;;;;;;;5015811;28;20099;-72
2022/09/08 04:10:07;;;;;;;20.13;13.30;;;;;;;;;;5013504;23;20058;-73
2022/09/08 04:12:33;;;;;;;16.65;13.73;;;;;;;;;;4999082;28;20034;-72
2022/09/08 04:15:09;;;;;;;15.10;13.18;;;;;;;;;;4981643;28;20082;-72
2022/09/08 04:17:45;;;;;;;17.35;13.07;;;;;;;;;;4982364;28;20027;-72
2022/09/08 04:20:32;;;;;;;;;;;;;;;;;;5003297;28;20015;-73
2022/09/08 04:22:58;;;;;;;16.75;13.82;;;;;;;;;;5018930;28;19894;-72
2022/09/08 04:25:24;;;;;;;15.48;13.25;;;;;;;;;;5018862;28;20030;-74
2022/09/08 04:27:50;;;;;;;15.75;12.95;;;;;;;;;;5009234;28;20022;-72
2022/09/08 04:30:17;;;;;;;21.13;13.88;;;;;;;;;;4999664;28;20014;-73
2022/09/08 04:32:43;;;;;;;19.10;12.77;;;;;;;;;;5014200;28;20007;-72
2022/09/08 04:35:09;;;;;;;16.80;12.63;;;;;;;;;;5022625;28;20102;-72
2022/09/08 04:37:35;;;;;;;15.18;11.70;;;;;;;;;;5023153;28;20018;-72
2022/09/08 04:40:02;;;;;;;18.23;12.35;;;;;;;;;;5003036;28;20065;-72
2022/09/08 04:42:29;;;;;;;15.93;11.50;;;;;;;;;;5020954;28;20018;-72
2022/09/08 04:44:57;;;;;;;15.15;11.07;;;;;;;;;;5009851;28;20018;-72
2022/09/08 04:47:23;;;;;;;12.68;10.60;;;;;;;;;;5014130;28;20103;-73
2022/09/08 04:49:50;;;;;;;30.10;13.30;;;;;;;;;;5022957;28;20019;-72
2022/09/08 04:52:16;;;;;;;18.00;11.95;;;;;;;;;;5020839;28;20074;-72
2022/09/08 04:54:42;;;;;;;17.48;11.02;;;;;;;;;;5016712;28;20054;-72
2022/09/08 04:57:09;;;;;;;15.63;11.40;;;;;;;;;;5010783;28;20026;-72
2022/09/08 04:59:35;;;;;;;17.50;11.13;;;;;;;;;;5001366;28;20160;-72
2022/09/08 05:02:02;;;;;;;15.02;10.73;;;;;;;;;;5022727;28;20011;-72
2022/09/08 05:04:28;;;;;;;17.00;10.43;;;;;;;;;;5021337;28;20045;-72
2022/09/08 05:06:54;;;;;;;17.20;12.00;;;;;;;;;;5042236;28;20034;-73
2022/09/08 05:09:21;;;;;;;16.88;12.32;;;;;;;;;;5000835;28;20046;-74
2022/09/08 05:11:47;;;;;;;18.20;14.18;;;;;;;;;;4983551;29;20027;-73
2022/09/08 05:14:14;;;;;;;19.30;15.63;;;;;;;;;;4991526;28;20034;-72
2022/09/08 05:16:40;;;;;;;18.17;15.60;;;;;;;;;;5002566;28;20022;-72
2022/09/08 05:19:07;;;;;;;17.83;15.20;;;;;;;;;;5002759;28;20026;-72
2022/09/08 05:21:38;;;;;;;21.92;15.70;;;;;;;;;;4995614;28;20086;-72
2022/09/08 05:24:05;;;;;;;18.58;14.52;;;;;;;;;;5002673;28;20026;-74
2022/09/08 05:26:31;;;;;;;25.25;14.05;;;;;;;;;;4995475;28;20027;-84
2022/09/08 05:29:33;;;;;;;20.13;16.00;;;;;;;;;;5000322;28;20035;-77
2022/09/08 05:32:02;;;;;;;19.13;17.13;;;;;;;;;;4981622;29;20047;-72
2022/09/08 05:34:28;;;;;;;22.02;16.08;;;;;;;;;;4981211;28;20027;-73
2022/09/08 05:36:54;;;;;;;22.55;17.55;;;;;;;;;;4999410;28;20039;-73
2022/09/08 05:39:20;;;;;;;36.67;18.15;;;;;;;;;;4995370;28;20068;-73
2022/09/08 05:41:49;;;;;;;22.60;15.70;;;;;;;;;;4992340;28;20038;-86
2022/09/08 05:44:17;;;;;;;21.15;14.43;;;;;;;;;;4966805;28;20097;-90
2022/09/08 05:46:43;;;;;;;20.58;12.68;;;;;;;;;;4961736;28;20046;-90
2022/09/08 05:49:10;;;;;;;20.17;11.13;;;;;;;;;;4986782;28;20025;-81
2022/09/08 05:51:36;;;;;;;17.05;11.07;;;;;;;;;;4995983;28;20037;-89
2022/09/08 05:54:02;;;;;;;16.38;10.27;;;;;;;;;;4995740;28;20269;-88
2022/09/08 05:56:28;;;;;;;21.60;10.82;;;;;;;;;;4971098;28;20082;-87
2022/09/08 05:58:57;;;;;;;17.40;11.20;;;;;;;;;;4955994;28;20034;-72
2022/09/08 06:01:23;;;;;;;13.35;10.23;;;;;;;;;;4965748;28;20499;-91
2022/09/08 06:03:56;;;;;;;12.80;9.65;;;;;;;;;;4978254;28;20116;-89
2022/09/08 06:06:27;;;;;;;15.90;10.60;;;;;;;;;;4971585;28;20034;-84
2022/09/08 06:08:59;;;;;;;14.23;10.32;;;;;;;;;;4950882;28;20042;-74
2022/09/08 06:11:25;;;;;;;20.52;10.40;;;;;;;;;;4974223;28;20027;-72
2022/09/08 06:13:53;;;;;;;12.63;8.18;;;;;;;;;;4977541;28;20416;-89
2022/09/08 06:16:22;;;;;;;11.10;8.23;;;;;;;;;;4978133;28;20094;-87
2022/09/08 06:18:48;;;;;;;13.82;8.82;;;;;;;;;;4994789;28;20014;-78
2022/09/08 06:21:23;;;;;;;11.82;7.97;;;;;;;;;;4983796;28;20094;-86
2022/09/08 06:23:54;;;;;;;16.98;8.07;;;;;;;;;;4964573;28;20557;-89
2022/09/08 06:26:39;;;;;;;17.40;7.95;;;;;;;;;;4983311;28;20086;-86
2022/09/08 06:29:24;;;;;;;11.57;7.32;;;;;;;;;;4950955;29;20036;-87
2022/09/08 06:32:11;;;;;;;11.20;7.72;;;;;;;;;;4970555;28;20176;-86
2022/09/08 06:34:42;;;;;;;14.35;7.60;;;;;;;;;;4995312;28;20022;-87
2022/09/08 06:37:29;;;;;;;10.45;7.20;;;;;;;;;;4967357;28;20030;-80
2022/09/08 06:39:59;;;;;;;8.32;7.53;;;;;;;;;;4981785;28;20061;-76
2022/09/08 06:42:38;;;;;;;13.70;8.02;;;;;;;;;;4981775;28;20086;-79
2022/09/08 06:45:06;;;;;;;17.45;9.15;;;;;;;;;;4969066;28;20094;-75
2022/09/08 06:47:39;;;;;;;16.40;9.75;;;;;;;;;;4963444;28;20035;-82
2022/09/08 06:50:09;;;;;;;14.63;10.02;;;;;;;;;;4955079;28;20062;-86
2022/09/08 06:52:49;;;;;;;15.15;9.20;;;;;;;;;;4948810;28;20037;-82
2022/09/08 06:55:18;;;;;;;12.35;7.53;;;;;;;;;;4965495;28;20037;-82
2022/09/08 06:58:00;;;;;;;14.48;9.93;;;;;;;;;;4952631;28;20042;-84
2022/09/08 07:00:30;;;;;;;8.35;6.80;;;;;;;;;;4955659;28;20505;-86
2022/09/08 07:03:15;;;;;;;10.60;6.95;;;;;;;;;;4975501;28;20030;-89
2022/09/08 07:05:41;;;;;;;18.10;6.78;;;;;;;;;;4948405;28;20027;-84
2022/09/08 07:08:09;;;;;;;9.20;6.47;;;;;;;;;;4949144;28;20030;-87
2022/09/08 07:10:46;;;;;;;11.70;7.35;;;;;;;;;;4949951;29;20200;-84
2022/09/08 07:13:16;;;;;;;8.95;6.40;;;;;;;;;;4974328;28;20543;-82
2022/09/08 07:15:56;;;;;;;12.27;6.80;;;;;;;;;;4970214;28;20395;-82
2022/09/08 07:18:28;;;;;;;11.82;5.95;;;;;;;;;;4977565;28;20438;-82
2022/09/08 07:21:05;;;;;;;10.18;5.18;;;;;;;;;;4949304;28;20508;-86
2022/09/08 07:23:37;;;;;;;7.65;4.53;;;;;;;;;;4959669;28;20068;-84
2022/09/08 07:26:05;;;;;;;14.32;4.30;;;;;;;;;;4970035;28;20468;-86
2022/09/08 07:28:33;;;;;;;9.65;4.90;;;;;;;;;;4952432;28;20118;-89
2022/09/08 07:31:04;;;;;;;11.75;6.05;;;;;;;;;;4955289;28;20074;-86
2022/09/08 07:33:33;;;;;;;9.70;4.50;;;;;;;;;;4968734;28;20034;-88
2022/09/08 07:36:07;;;;;;;10.57;5.32;;;;;;;;;;4956523;28;20053;-86
2022/09/08 07:38:49;;;;;;;7.18;3.88;;;;;;;;;;4951586;28;20027;-80
2022/09/08 07:41:22;;;;;;;8.80;3.70;;;;;;;;;;4965779;28;20412;-79
2022/09/08 07:43:49;;;;;;;12.90;4.63;;;;;;;;;;4951053;28;20476;-77
2022/09/08 07:46:29;;;;;;;8.65;3.90;;;;;;;;;;4972749;28;20061;-81
2022/09/08 07:49:04;;;;;;;7.20;3.90;;;;;;;;;;4973483;28;20094;-81
2022/09/08 07:51:46;;;;;;;7.28;4.00;;;;;;;;;;4960109;28;20029;-73
2022/09/08 07:54:18;;;;;;;7.85;3.72;;;;;;;;;;4950939;28;20544;-82
2022/09/08 07:56:54;;;;;;;5.30;3.78;;;;;;;;;;4968475;28;20463;-78
2022/09/08 07:59:40;;;;;;;12.60;5.35;;;;;;;;;;4970866;28;20483;-79
2022/09/08 08:02:25;;;;;;;9.63;4.13;;;;;;;;;;4973477;28;20247;-85
2022/09/08 08:04:54;;;;;;;15.73;4.93;;;;;;;;;;4957318;28;20026;-83
2022/09/08 08:07:26;;;;;;;9.98;4.82;;;;;;;;;;4955030;28;20023;-82
2022/09/08 08:09:52;;;;;;;6.93;3.70;;;;;;;;;;4967927;28;20050;-81
2022/09/08 08:12:23;;;;;;;8.32;4.32;;;;;;;;;;4969913;28;20408;-73
2022/09/08 08:14:59;;;;;;;7.80;3.83;;;;;;;;;;4967741;28;20098;-82
2022/09/08 08:17:31;;;;;;;6.72;4.07;;;;;;;;;;4963700;28;20030;-82
2022/09/08 08:20:06;;;;;;;10.20;4.07;;;;;;;;;;4973165;28;20023;-86
2022/09/08 08:22:33;;;;;;;7.80;3.90;;;;;;;;;;4973721;28;20030;-77
2022/09/08 08:25:05;;;;;;;12.13;3.90;;;;;;;;;;4956079;28;20046;-79
2022/09/08 08:27:49;;;;;;;5.33;3.90;;;;;;;;;;4954025;28;20397;-83
2022/09/08 08:30:21;;;;;;;8.15;3.63;;;;;;;;;;4969725;28;20355;-80
2022/09/08 08:33:08;;;;;;;9.63;4.03;;;;;;;;;;4969924;28;20511;-88
2022/09/08 08:35:40;;;;;;;9.48;3.25;;;;;;;;;;4966672;28;20037;-86
2022/09/08 08:38:18;;;;;;;5.07;3.17;;;;;;;;;;4945258;29;20401;-82
2022/09/08 08:40:56;;;;;;;5.15;3.33;;;;;;;;;;4952333;28;20452;-84
2022/09/08 08:43:43;;;;;;;10.57;3.33;;;;;;;;;;4961151;28;20443;-81
2022/09/08 08:46:33;;;;;;;10.82;3.50;;;;;;;;;;4951329;28;20038;-77
2022/09/08 08:49:12;;;;;;;10.80;3.70;;;;;;;;;;4899688;29;20072;-90
2022/09/08 08:51:47;;;;;;;5.30;3.10;;;;;;;;;;4880231;29;20570;-87
2022/09/08 08:54:22;;;;;;;12.02;4.00;;;;;;;;;;4904240;29;20101;-85
2022/09/08 08:56:57;;;;;;;9.77;3.22;;;;;;;;;;4870525;29;20051;-72
2022/09/08 08:59:35;;;;;;;13.68;3.63;;;;;;;;;;4883158;29;20043;-77
2022/09/08 09:02:21;;;;;;;12.95;3.38;;;;;;;;;;4893885;29;20092;-82
2022/09/08 09:05:13;;;;;;;7.28;3.40;;;;;;;;;;4896119;29;20562;-75
2022/09/08 09:07:42;;;;;;;9.70;3.70;;;;;;;;;;4856568;29;20098;-79
2022/09/08 09:10:24;;;;;;;7.72;3.22;;;;;;;;;;4854836;29;20120;-90
2022/09/08 09:13:16;;;;;;;8.23;3.47;;;;;;;;;;4842413;29;20038;-85
2022/09/08 09:15:42;;;;;;;9.07;3.90;;;;;;;;;;4853252;29;20033;-79
2022/09/08 09:18:29;;;;;;;8.13;3.45;;;;;;;;;;4840742;29;20187;-84
2022/09/08 09:20:57;;;;;;;8.65;3.42;;;;;;;;;;4848372;29;20074;-91
2022/09/08 09:24:24;;;;;;;7.15;3.42;;;;;;;;;;4852213;29;20033;-92
2022/09/08 09:26:34;;;;;;;10.20;3.55;;;;;;;;;;4906052;29;20031;-92
2022/09/08 09:29:09;;;;;;;8.57;3.72;;;;;;;;;;4918571;29;20034;-75
2022/09/08 09:31:38;;;;;;;7.13;3.78;;;;;;;;;;4934073;29;20087;-87
2022/09/08 09:34:07;;;;;;;9.10;3.90;;;;;;;;;;4936089;29;20502;-89
2022/09/08 09:36:52;;;;;;;23.17;7.30;;;;;;;;;;4941448;29;20118;-92
2022/09/08 09:39:29;;;;;;;9.88;3.83;;;;;;;;;;4910341;29;20064;-80
2022/09/08 09:42:10;;;;;;;7.43;3.78;;;;;;;;;;4911381;29;20035;-83
2022/09/08 09:44:57;;;;;;;5.68;3.33;;;;;;;;;;4948982;29;20039;-92
2022/09/08 09:47:43;;;;;;;5.35;3.20;;;;;;;;;;4974400;28;20031;-89
2022/09/08 09:50:25;;;;;;;7.05;3.03;;;;;;;;;;4980307;28;20097;-82
2022/09/08 09:53:15;;;;;;;12.02;3.83;;;;;;;;;;4979836;28;20453;-82
2022/09/08 09:56:00;;;;;;;6.50;3.33;;;;;;;;;;4922322;29;20043;-92
2022/09/08 09:58:49;;;;;;;10.90;3.72;;;;;;;;;;4946147;29;20040;-85
2022/09/08 10:01:27;;;;;;;6.97;3.58;;;;;;;;;;4930339;29;20039;-83
2022/09/08 10:04:12;;;;;;;9.50;3.40;;;;;;;;;;4944594;29;20028;-92
2022/09/08 10:06:50;;;;;;;10.45;3.47;;;;;;;;;;4937312;29;20042;-83
2022/09/08 10:12:39;;;;;;;7.85;3.30;;;;;;;;;;4919298;29;20032;-85
2022/09/08 10:15:25;;;;;;;7.38;3.38;;;;;;;;;;4921774;29;20519;-83
2022/09/08 10:18:17;;;;;;;8.07;3.45;;;;;;;;;;4922677;29;20050;-82
2022/09/08 10:20:43;;;;;;;8.68;3.67;;;;;;;;;;4873951;29;20055;-81
2022/09/08 10:23:48;;;;;;;7.25;3.47;;;;;;;;;;4882363;29;20037;-91
2022/09/08 10:26:17;;;;;;;8.55;3.22;;;;;;;;;;4824562;29;20034;-85
2022/09/08 10:28:46;;;;;;;6.68;3.38;;;;;;;;;;4836348;29;20501;-76
2022/09/08 10:31:35;;;;;;;9.35;3.88;;;;;;;;;;4820544;29;20083;-89
2022/09/08 10:34:14;;;;;;;10.18;3.80;;;;;;;;;;4839671;29;20099;-92
2022/09/08 10:37:00;;;;;;;7.80;3.50;;;;;;;;;;4829979;29;20050;-91
2022/09/08 10:39:40;;;;;;;9.55;3.20;;;;;;;;;;4820304;29;20114;-93
2022/09/08 10:42:15;;;;;;;11.40;4.68;;;;;;;;;;4815572;29;20058;-93
2022/09/08 10:44:53;;;;;;;5.03;2.80;;;;;;;;;;4831714;29;20129;-87
2022/09/08 10:47:19;;;;;;;7.38;3.13;;;;;;;;;;4845406;29;20038;-89
2022/09/08 10:49:53;;;;;;;6.95;3.28;;;;;;;;;;4848679;29;20045;-86
2022/09/08 10:52:20;;;;;;;6.43;3.10;;;;;;;;;;4840497;29;20623;-78
2022/09/08 10:54:48;;;;;;;7.30;3.03;;;;;;;;;;4845279;29;20033;-85
2022/09/08 10:57:18;;;;;;;6.10;2.92;;;;;;;;;;4900396;28;20086;-78
2022/09/08 11:00:04;;;;;;;7.85;3.22;;;;;;;;;;4972339;28;20054;-85
2022/09/08 11:02:40;;;;;;;8.77;3.00;;;;;;;;;;4969879;28;20019;-82
2022/09/08 11:05:21;;;;;;;3.88;2.67;;;;;;;;;;4956121;28;20477;-89
2022/09/08 11:08:13;;;;;;;22.08;3.78;;;;;;;;;;4950975;28;20019;-85
2022/09/08 11:10:51;;;;;;;11.05;3.00;;;;;;;;;;4953431;29;20514;-91
2022/09/08 11:13:17;;;;;;;11.05;3.05;;;;;;;;;;4954801;28;20378;-89
2022/09/08 11:15:50;;;;;;;7.22;2.60;;;;;;;;;;4953218;28;20027;-89
2022/09/08 11:18:16;;;;;;;;;;;;;;;;;;4967537;28;20035;-82
2022/09/08 11:20:47;;;;;;;7.78;2.67;;;;;;;;;;4954419;28;19921;-87
2022/09/08 11:23:19;;;;;;;7.95;2.78;;;;;;;;;;4954992;28;20024;-77
2022/09/08 11:26:18;;;;;;;6.85;3.28;;;;;;;;;;4957169;28;20030;-88
2022/09/08 11:29:05;;;;;;;7.65;3.10;;;;;;;;;;4892431;29;20040;-86
2022/09/08 11:31:31;;;;;;;7.43;2.78;;;;;;;;;;4879512;29;20040;-87
2022/09/08 11:34:20;;;;;;;8.32;2.67;;;;;;;;;;4884919;29;20056;-89
2022/09/08 11:36:58;;;;;;;11.05;3.70;;;;;;;;;;4879783;29;20145;-92
2022/09/08 11:39:29;;;;;;;7.22;2.92;;;;;;;;;;4876596;29;20428;-86
2022/09/08 11:42:04;;;;;;;8.27;2.60;;;;;;;;;;4877298;29;20807;-87
2022/09/08 11:44:30;;;;;;;8.10;3.45;;;;;;;;;;4896047;29;20029;-85
2022/09/08 11:47:05;;;;;;;13.73;4.97;;;;;;;;;;4891384;29;20035;-86
2022/09/08 11:49:41;;;;;;;12.25;4.47;;;;;;;;;;4906990;29;20088;-90
2022/09/08 11:52:07;;;;;;;9.27;3.72;;;;;;;;;;4900644;29;20025;-88
2022/09/08 11:54:53;;;;;;;7.18;2.92;;;;;;;;;;4890412;29;20057;-79
2022/09/08 11:57:43;;;;;;;8.68;3.42;;;;;;;;;;4879965;29;20116;-82
2022/09/08 12:00:15;;;;;;;7.05;3.30;;;;;;;;;;4839216;29;20382;-86
2022/09/08 12:02:43;;;;;;;9.53;3.30;;;;;;;;;;4839752;29;20041;-82
2022/09/08 12:05:19;;;;;;;55.65;46.10;;;;;;;;;;4881707;29;20267;-83
2022/09/08 12:07:50;;;;;;;6.50;3.67;;;;;;;;;;4906471;29;20032;-86
2022/09/08 12:10:31;;;;;;;10.00;3.65;;;;;;;;;;4907884;29;20095;-88
2022/09/08 12:13:13;;;;;;;9.23;3.45;;;;;;;;;;4902757;29;20036;-77
2022/09/08 12:15:48;;;;;;;7.45;4.00;;;;;;;;;;4892771;29;20043;-88
2022/09/08 12:18:19;;;;;;;8.23;2.80;;;;;;;;;;4910015;29;20131;-81
2022/09/08 12:20:56;;;;;;;10.30;3.70;;;;;;;;;;4901176;29;20035;-74
2022/09/08 12:23:25;;;;;;;10.18;3.78;;;;;;;;;;4914756;29;20546;-82
2022/09/08 12:26:11;;;;;;;6.03;3.03;;;;;;;;;;4912172;29;20527;-91
2022/09/08 12:28:40;;;;;;;9.60;3.30;;;;;;;;;;4912329;29;20035;-73
2022/09/08 12:31:08;;;;;;;5.82;2.83;;;;;;;;;;4914122;29;20062;-90
2022/09/08 12:33:53;;;;;;;6.55;3.05;;;;;;;;;;4926639;29;20111;-85
2022/09/08 12:36:38;;;;;;;7.57;3.00;;;;;;;;;;4900562;29;20509;-75
2022/09/08 12:39:05;;;;;;;8.60;2.92;;;;;;;;;;4948484;28;20061;-78
2022/09/08 12:41:41;;;;;;;6.30;3.28;;;;;;;;;;4970325;28;20500;-77
2022/09/08 12:44:14;;;;;;;17.20;9.32;;;;;;;;;;4971715;28;20027;-89
2022/09/08 12:46:43;;;;;;;9.47;6.00;;;;;;;;;;4955960;28;20051;-72
2022/09/08 12:49:21;;;;;;;8.48;3.38;;;;;;;;;;4972593;28;20035;-79
2022/09/08 12:51:54;;;;;;;8.13;3.00;;;;;;;;;;4971372;28;20030;-85
2022/09/08 12:54:33;;;;;;;7.30;3.15;;;;;;;;;;4971275;28;20167;-81
2022/09/08 12:57:02;;;;;;;9.35;2.85;;;;;;;;;;4956316;28;20133;-86
2022/09/08 12:59:44;;;;;;;9.65;3.30;;;;;;;;;;4958157;28;20492;-84
2022/09/08 13:02:28;;;;;;;25.90;5.20;;;;;;;;;;4970633;28;20026;-86
2022/09/08 13:05:13;;;;;;;7.82;3.33;;;;;;;;;;4959682;28;20508;-89
2022/09/08 13:07:45;;;;;;;17.95;4.15;;;;;;;;;;4957124;28;20031;-90
2022/09/08 13:10:13;;;;;;;13.73;3.90;;;;;;;;;;5050592;23;20044;-85
2022/09/08 13:12:59;;;;;;;14.30;4.00;;;;;;;;;;4955278;28;20031;-85
2022/09/08 13:15:28;;;;;;;9.93;3.10;;;;;;;;;;4953368;29;20038;-83
2022/09/08 13:17:57;;;;;;;16.17;5.63;;;;;;;;;;4955041;28;20049;-84
2022/09/08 13:20:41;;;;;;;14.73;6.25;;;;;;;;;;4954216;28;20055;-86
2022/09/08 13:23:10;;;;;;;14.98;3.90;;;;;;;;;;4954287;28;20090;-90
2022/09/08 13:25:44;;;;;;;7.63;3.65;;;;;;;;;;4968200;28;20058;-85
2022/09/08 13:28:10;;;;;;;10.52;3.47;;;;;;;;;;4957706;28;20023;-88
2022/09/08 13:30:48;;;;;;;8.90;3.22;;;;;;;;;;4967471;28;20030;-79
2022/09/08 13:33:21;;;;;;;19.13;3.55;;;;;;;;;;4950163;28;20050;-80
2022/09/08 13:35:47;;;;;;;20.05;4.13;;;;;;;;;;4956558;28;20026;-80
2022/09/08 13:38:16;;;;;;;10.85;3.40;;;;;;;;;;4963331;28;20031;-73
2022/09/08 13:40:45;;;;;;;16.98;3.63;;;;;;;;;;4952617;29;20031;-83
2022/09/08 13:43:15;;;;;;;36.83;5.60;;;;;;;;;;4954036;28;20035;-72
2022/09/08 13:46:00;;;;;;;107.28;8.88;;;;;;;;;;4963260;28;20057;-80
2022/09/08 13:48:29;;;;;;;37.10;4.82;;;;;;;;;;4960908;28;20038;-75
2022/09/08 13:50:58;;;;;;;20.48;3.95;;;;;;;;;;4954126;29;20090;-74
2022/09/08 13:53:24;;;;;;;14.95;3.85;;;;;;;;;;4954909;28;20511;-84
2022/09/08 13:55:53;;;;;;;12.77;3.60;;;;;;;;;;4954249;28;20031;-84
2022/09/08 13:58:30;;;;;;;8.50;3.13;;;;;;;;;;4973369;28;20098;-86
2022/09/08 14:01:01;;;;;;;15.25;3.72;;;;;;;;;;4971222;28;20473;-83
2022/09/08 14:03:29;;;;;;;11.00;3.85;;;;;;;;;;4953381;28;20032;-83
2022/09/08 14:05:56;;;;;;;21.38;4.55;;;;;;;;;;4953662;28;20043;-79
2022/09/08 14:08:24;;;;;;;15.13;4.13;;;;;;;;;;4968401;28;20485;-75
2022/09/08 14:11:09;;;;;;;13.63;3.50;;;;;;;;;;4962875;28;20039;-85
2022/09/08 14:13:36;;;;;;;8.88;3.30;;;;;;;;;;4956184;28;20027;-87
2022/09/08 14:16:25;;;;;;;7.70;3.33;;;;;;;;;;4954017;29;20118;-82
2022/09/08 14:19:00;;;;;;;17.23;5.53;;;;;;;;;;4955286;28;20034;-74
2022/09/08 14:21:33;;;;;;;10.10;3.67;;;;;;;;;;4954077;28;20503;-90
2022/09/08 14:24:02;;;;;;;105.38;10.00;;;;;;;;;;4955054;29;20057;-89
2022/09/08 14:26:35;;;;;;;24.50;5.28;;;;;;;;;;4953287;28;20023;-81
2022/09/08 14:29:01;;;;;;;;;;;;;;;;;;4955976;28;20027;-86
2022/09/08 14:31:29;;;;;;;60.17;7.10;;;;;;;;;;4954534;28;19969;-83
2022/09/08 14:33:59;;;;;;;19.65;4.25;;;;;;;;;;4953897;28;20110;-85
2022/09/08 14:37:01;;;;;;;24.50;5.10;;;;;;;;;;4955430;28;20083;-91
2022/09/08 14:39:36;;;;;;;34.08;5.07;;;;;;;;;;4935006;28;20071;-74
2022/09/08 14:42:21;;;;;;;13.85;3.70;;;;;;;;;;4918291;29;20040;-77
2022/09/08 14:44:50;;;;;;;21.35;3.75;;;;;;;;;;4937657;29;20039;-76
2022/09/08 14:47:26;;;;;;;20.30;4.38;;;;;;;;;;4918761;29;20150;-76
2022/09/08 14:50:00;;;;;;;39.22;5.03;;;;;;;;;;4932432;29;20039;-84
2022/09/08 14:52:39;;;;;;;57.83;5.53;;;;;;;;;;4935564;29;20032;-84
2022/09/08 14:55:16;;;;;;;25.52;4.15;;;;;;;;;;4937645;29;20050;-80
2022/09/08 14:57:49;;;;;;;20.33;3.85;;;;;;;;;;4945374;29;20051;-86
2022/09/08 15:00:33;;;;;;;20.15;3.92;;;;;;;;;;4919435;29;20031;-85
2022/09/08 15:03:01;;;;;;;25.75;4.05;;;;;;;;;;4918483;29;20050;-84
2022/09/08 15:05:27;;;;;;;28.80;4.90;;;;;;;;;;4924371;29;20034;-84
2022/09/08 15:07:57;;;;;;;38.92;6.05;;;;;;;;;;4946034;29;20219;-85